createdAt,value
2023-02-14T00:03:16.110Z,6.50
2023-02-14T00:08:18.501Z,9.40
2023-02-14T00:13:20.798Z,5.80
2023-02-14T00:18:43.037Z,5.70
2023-02-14T00:23:45.220Z,4.70
2023-02-14T00:28:47.510Z,6.60
2023-02-14T00:33:49.692Z,5.00
2023-02-14T00:38:52.192Z,6.20
2023-02-14T00:43:54.372Z,6.30
2023-02-14T00:48:56.756Z,5.50
2023-02-14T00:53:58.939Z,6.10
2023-02-14T00:59:01.126Z,6.60
2023-02-14T01:04:04.029Z,5.40
2023-02-14T01:09:06.310Z,6.40
2023-02-14T01:14:08.503Z,6.10
2023-02-14T01:19:10.784Z,5.80
2023-02-14T01:24:13.069Z,6.30
2023-02-14T01:29:15.268Z,6.70
2023-02-14T01:34:17.443Z,6.00
2023-02-14T01:39:19.624Z,5.60
2023-02-14T01:44:30.716Z,5.40
2023-02-14T01:49:38.331Z,5.20
2023-02-14T01:54:46.257Z,5.20
2023-02-14T01:59:53.757Z,5.90
2023-02-14T02:04:56.465Z,5.10
2023-02-14T02:10:02.440Z,6.20
2023-02-14T02:15:06.633Z,4.20
2023-02-14T02:20:44.103Z,6.50
2023-02-14T02:26:07.352Z,5.50
2023-02-14T02:31:25.057Z,5.40
2023-02-14T02:36:59.848Z,5.50
2023-02-14T02:42:23.539Z,6.50
2023-02-14T02:51:53.190Z,6.30
2023-02-14T02:57:00.114Z,7.70
2023-02-14T03:02:15.377Z,7.00
2023-02-14T03:07:35.078Z,7.10
2023-02-14T03:12:54.054Z,6.40
2023-02-14T03:18:00.231Z,7.60
2023-02-14T03:23:17.876Z,5.30
2023-02-14T03:28:58.563Z,7.20
2023-02-14T03:34:15.629Z,6.10
2023-02-14T03:39:55.462Z,6.70
2023-02-14T03:45:01.689Z,6.70
2023-02-14T03:50:15.161Z,6.30
2023-02-14T03:55:26.906Z,6.90
2023-02-14T04:00:32.873Z,5.40
2023-02-14T04:05:38.447Z,5.50
2023-02-14T04:10:43.491Z,6.80
2023-02-14T04:15:47.121Z,6.40
2023-02-14T04:20:51.028Z,6.30
2023-02-14T04:25:54.852Z,6.20
2023-02-14T04:31:03.600Z,7.20
2023-02-14T04:36:07.824Z,5.80
2023-02-14T04:41:11.237Z,5.00
2023-02-14T04:46:14.806Z,6.20
2023-02-14T04:51:18.679Z,7.70
2023-02-14T04:56:22.085Z,6.40
2023-02-14T05:01:25.807Z,3.70
2023-02-14T05:06:29.321Z,8.00
2023-02-14T05:11:33.452Z,4.90
2023-02-14T05:16:38.706Z,5.80
2023-02-14T05:21:42.324Z,6.30
2023-02-14T05:26:45.937Z,7.20
2023-02-14T05:31:50.012Z,5.90
2023-02-14T05:36:55.225Z,6.20
2023-02-14T05:41:59.451Z,7.60
2023-02-14T05:52:07.104Z,6.20
2023-02-14T05:57:10.621Z,7.70
2023-02-14T06:02:16.175Z,8.70
2023-02-14T06:07:20.011Z,7.50
2023-02-14T06:12:23.424Z,6.80
2023-02-14T06:17:27.045Z,7.40
2023-02-14T06:22:30.832Z,9.00
2023-02-14T06:27:34.586Z,8.90
2023-02-14T06:32:38.202Z,5.00
2023-02-14T06:37:42.498Z,7.80
2023-02-14T06:42:46.051Z,7.50
2023-02-14T06:47:49.570Z,8.80
2023-02-14T06:52:53.086Z,7.70
2023-02-14T06:57:56.812Z,8.60
2023-02-14T07:03:00.395Z,9.00
2023-02-14T07:08:04.547Z,8.00
2023-02-14T07:13:08.070Z,8.40
2023-02-14T07:18:11.997Z,7.50
2023-02-14T07:23:15.419Z,7.00
2023-02-14T07:28:19.213Z,9.00
2023-02-14T07:33:22.746Z,5.80
2023-02-14T07:38:26.260Z,8.20
2023-02-14T07:43:29.678Z,6.80
2023-02-14T07:48:34.482Z,8.30
2023-02-14T07:53:38.340Z,5.50
2023-02-14T07:58:41.756Z,8.40
2023-02-14T08:03:49.614Z,7.50
2023-02-14T08:08:53.392Z,6.80
2023-02-14T08:13:57.024Z,6.30
2023-02-14T08:19:01.545Z,7.20
2023-02-14T08:24:05.366Z,6.90
2023-02-14T08:29:08.779Z,8.00
2023-02-14T08:34:12.504Z,8.30
2023-02-14T08:39:16.119Z,6.80
2023-02-14T08:44:19.645Z,7.40
2023-02-14T08:49:23.454Z,7.20
2023-02-14T08:54:26.871Z,6.80
2023-02-14T08:59:30.488Z,8.50
2023-02-14T09:04:35.909Z,7.10
2023-02-14T09:09:39.816Z,5.60
2023-02-14T09:14:44.935Z,9.30
2023-02-14T09:19:48.364Z,6.90
2023-02-14T09:24:51.956Z,7.40
2023-02-14T09:29:55.404Z,6.50
2023-02-14T09:34:58.999Z,6.90
2023-02-14T09:40:02.920Z,6.50
2023-02-14T09:45:25.996Z,6.70
2023-02-14T09:50:54.336Z,6.40
2023-02-14T09:56:16.742Z,7.80
2023-02-14T10:01:43.810Z,6.30
2023-02-14T10:07:14.979Z,6.40
2023-02-14T10:12:21.669Z,9.10
2023-02-14T10:17:49.857Z,7.30
2023-02-14T10:23:06.071Z,8.40
2023-02-14T10:28:15.244Z,6.40
2023-02-14T10:33:23.035Z,5.30
2023-02-14T10:38:32.386Z,5.70
2023-02-14T10:43:54.027Z,5.00
2023-02-14T10:49:12.804Z,4.60
2023-02-14T10:54:22.793Z,4.40
2023-02-14T10:59:46.866Z,5.00
2023-02-14T11:04:51.938Z,4.80
2023-02-14T11:09:57.073Z,4.40
2023-02-14T11:15:15.848Z,4.70
2023-02-14T11:20:20.319Z,5.00
2023-02-14T11:25:30.968Z,4.50
2023-02-14T11:30:39.527Z,4.50
2023-02-14T11:35:51.504Z,4.90
2023-02-14T11:40:57.682Z,4.80
2023-02-14T11:46:38.566Z,3.80
2023-02-14T11:51:48.349Z,4.00
2023-02-14T11:57:02.144Z,6.20
2023-02-14T12:02:27.371Z,6.00
2023-02-14T12:07:30.844Z,5.10
2023-02-14T12:12:35.897Z,4.60
2023-02-14T12:17:40.129Z,3.90
2023-02-14T12:27:57.299Z,4.00
2023-02-14T12:33:01.437Z,4.90
2023-02-14T12:38:43.441Z,4.90
2023-02-14T12:43:51.049Z,3.60
2023-02-14T12:49:30.617Z,4.40
2023-02-14T12:54:46.519Z,3.70
2023-02-14T13:00:17.890Z,3.40
2023-02-14T13:05:55.095Z,3.00
2023-02-14T13:11:04.753Z,3.60
2023-02-14T13:16:22.587Z,4.20
2023-02-14T13:21:31.855Z,3.20
2023-02-14T13:26:39.976Z,3.70
2023-02-14T13:31:43.876Z,3.70
2023-02-14T13:36:48.441Z,3.50
2023-02-14T13:41:52.055Z,3.50
2023-02-14T13:46:55.498Z,3.80
2023-02-14T13:52:03.971Z,4.00
2023-02-14T13:57:32.707Z,4.00
2023-02-14T14:02:56.796Z,4.20
2023-02-14T14:08:20.499Z,3.90
2023-02-14T14:13:42.472Z,3.60
2023-02-14T14:18:46.065Z,4.10
2023-02-14T14:24:14.561Z,5.10
2023-02-14T14:29:47.196Z,3.40
2023-02-14T14:35:05.829Z,4.70
2023-02-14T14:40:25.221Z,3.70
2023-02-14T14:45:31.729Z,4.00
2023-02-14T14:50:36.830Z,3.30
2023-02-14T14:55:45.401Z,7.50
2023-02-14T15:00:52.276Z,6.70
2023-02-14T15:06:17.735Z,6.70
2023-02-14T15:11:47.966Z,6.40
2023-02-14T15:16:53.808Z,6.60
2023-02-14T15:21:57.879Z,8.30
2023-02-14T15:27:03.327Z,14.60
2023-02-14T15:32:10.023Z,17.10
2023-02-14T15:37:13.947Z,12.80
2023-02-14T15:42:31.917Z,8.60
2023-02-14T15:47:35.414Z,17.20
2023-02-14T15:52:41.392Z,20.80
2023-02-14T15:57:48.789Z,29.00
2023-02-14T16:02:57.729Z,28.10
2023-02-14T16:08:08.036Z,15.80
2023-02-14T16:13:15.015Z,38.50
2023-02-14T16:18:32.129Z,19.30
2023-02-14T16:23:37.023Z,14.00
2023-02-14T16:28:42.463Z,13.60
2023-02-14T16:33:46.976Z,16.90
2023-02-14T16:38:51.311Z,22.20
2023-02-14T16:43:55.567Z,11.40
2023-02-14T16:49:00.299Z,10.00
2023-02-14T16:54:07.819Z,10.90
2023-02-14T16:59:11.312Z,13.70
2023-02-14T17:04:15.369Z,16.50
2023-02-14T17:09:24.497Z,13.30
2023-02-14T17:14:32.713Z,17.10
2023-02-14T17:19:36.945Z,18.10
2023-02-14T17:24:41.224Z,17.30
2023-02-14T17:29:44.695Z,10.50
2023-02-14T17:34:49.471Z,12.30
2023-02-14T17:39:53.571Z,8.70
2023-02-14T17:44:56.980Z,8.50
2023-02-14T17:50:00.497Z,8.60
2023-02-14T17:55:04.319Z,7.00
2023-02-14T18:00:11.610Z,11.00
2023-02-14T18:05:17.250Z,15.40
2023-02-14T18:10:21.960Z,20.10
2023-02-14T18:15:27.702Z,11.80
2023-02-14T18:20:31.116Z,18.00
2023-02-14T18:25:34.940Z,18.00
2023-02-14T18:30:38.451Z,26.40
2023-02-14T18:35:42.274Z,32.00
2023-02-14T18:40:45.787Z,24.00
2023-02-14T18:45:49.533Z,32.20
2023-02-14T18:50:53.736Z,27.90
2023-02-14T18:55:57.263Z,40.20
2023-02-14T19:01:14.922Z,43.30
2023-02-14T19:06:19.673Z,22.50
2023-02-14T19:11:25.722Z,25.90
2023-02-14T19:16:34.007Z,32.40
2023-02-14T19:21:37.776Z,29.20
2023-02-14T19:26:41.296Z,26.60
2023-02-14T19:31:48.675Z,21.40
2023-02-14T19:36:53.851Z,36.60
2023-02-14T19:41:57.980Z,36.80
2023-02-14T19:47:04.214Z,47.50
2023-02-14T19:52:25.705Z,31.10
2023-02-14T19:57:29.764Z,17.00
2023-02-14T20:02:33.261Z,15.60
2023-02-14T20:07:36.860Z,20.60
2023-02-14T20:12:40.375Z,18.50
2023-02-14T20:17:43.889Z,16.30
2023-02-14T20:22:47.507Z,15.30
2023-02-14T20:27:54.192Z,18.90
2023-02-14T20:32:57.606Z,23.00
2023-02-14T20:38:01.325Z,17.30
2023-02-14T20:43:04.843Z,19.40
2023-02-14T20:48:08.375Z,12.40
2023-02-14T20:53:14.026Z,13.00
2023-02-14T20:58:17.844Z,13.80
2023-02-14T21:03:23.133Z,13.50
2023-02-14T21:08:26.927Z,10.30
2023-02-14T21:13:30.651Z,17.10
2023-02-14T21:18:35.822Z,15.70
2023-02-14T21:23:39.320Z,13.90
2023-02-14T21:28:42.833Z,8.30
2023-02-14T21:33:49.532Z,11.80
2023-02-14T21:38:58.475Z,10.60
2023-02-14T21:44:03.403Z,10.60
2023-02-14T21:49:25.985Z,8.80
2023-02-14T21:54:29.882Z,10.80
2023-02-14T21:59:33.217Z,11.70
2023-02-14T22:04:38.372Z,13.30
2023-02-14T22:09:41.884Z,12.10
2023-02-14T22:14:45.506Z,10.20
2023-02-14T22:19:49.242Z,10.80
2023-02-14T22:24:52.738Z,10.10
2023-02-14T22:29:56.170Z,11.60
2023-02-14T22:34:59.765Z,9.30
2023-02-14T22:40:04.413Z,9.90
2023-02-14T22:45:08.896Z,11.90
2023-02-14T22:55:15.677Z,13.40
2023-02-14T23:00:19.805Z,10.20
2023-02-14T23:05:23.313Z,10.90
2023-02-14T23:10:28.059Z,10.10
2023-02-14T23:15:50.145Z,10.80
2023-02-14T23:21:12.364Z,10.70
2023-02-14T23:26:20.134Z,9.40
2023-02-14T23:31:23.639Z,11.70
2023-02-14T23:36:27.421Z,12.10
2023-02-14T23:41:49.576Z,12.50
2023-02-14T23:46:55.480Z,16.70
2023-02-14T23:51:59.265Z,14.20
2023-02-14T23:57:03.811Z,13.30
